Terminal Aerodrome Forecast
Issued by NWS

Home | Current Version | Previous Version | Text Only | Print | Product List | Glossary On
Versions: 1 2 3 4 5 6 7 8 9 10 11 12 13 14 15 16 17 18 19 20 21 22 23 24 25 26
000
FTUS41 KBOX 211120
TAFBED
TAF
KBED 211120Z 2112/2212 00000KT P6SM SKC
     FM220500 20004KT P6SM BKN110
     FM220600 20004KT P6SM VCSH BKN060
     FM220800 21004KT P6SM OVC060=

USA.gov is the U.S. government's official web portal to all federal, state and local government web resources and services.